Kezdőlap
METAR-TAF:

METAR-TAF

Repülőterek :

Weno, Mikronézia

földrajzi szélesség: 07-28N, földrajzi hosszúság: 151-51E, magasság: 3 m

Jelenlegi meteorológiai megfigyelések

A jelentés 22 perccel ezelõtt készült, 14:52 UTC
Különbözõ irányokból fújó szél 5 kt
Hőmérséklet 27°C
Páratartalom 89%
Légköri nyomás 1007 hPa
Látótávolság: 24.1 km
Kevés felhő 1400 lábon
Szórványos felhőzet 12000 lábon
Borult 28000 lábon

METAR: PTKK 191452Z VRB05KT 15SM FEW014 SCT120 OVC280 27/25 A2973 RMK SLP069 8/178 T02670252 57015

Idő: 01:14 (15:14 UTC)

Előrejelzés

A jelentés 3 órával és 46 perccel ezelõtt készült, 11:28 UTC
Az előrejelzés 19-én 12 óra UTC és 20-én 12 óra UTC között érvényes
Különbözõ irányokból fújó szél 4 kt
Látótávolság: 10 km
Kevés felhő 1400 lábon
Szórványos felhőzet 12000 lábon
Záporok a közelben

TAF: PTKK 191128Z 1912/2012 VRB04KT P6SM VCSH FEW014 SCT120

Meteorológiai megfigyelések és előrejelzések több, mint 4000 repülőtéren (METAR és TAF jelentéseket).

A térképen piros és sárga pontok jelzik az elérhető meteorológiai állomásokat.

Mozgassa az egeret a pont fölött, hogy megjelenjen az állomás neve.

Azután kattintson az időjárási megfigyelések és előrejelzések megtekintéséhez.

A térkép megváltoztatása: kattintson a fekete keresztel jelölt zöld gombra ráközelítéshez, a vonallal jelölt zöld gombra távolításhoz, vagy a zöld nyilakra a szomszédos térképek eléréséhez.


METAR-TAF: